ROMMA est une association bénévole à but non lucratif. Votre soutien est indispensable : ADHERER à ROMMA ou FAIRE un DON

Taninges - (74, Haute-Savoie)

Vallée du Giffre (635 m)   Longitude: 06° 35' 38" E   Latitude: 46° 06' 21" N Station romma n°98
 

Détail journalier du     <<     >>

Température Precipitation Humidité Pression Vent Dir Rafale Dir. rafale Ensol.
Heure (°C) (mm) (%) (hPa) (km/h) (km/h) (min)
01:00 4.908410231O6OSO0
02:00 3.408810221O3O0
03:00 2.409110221SO3SO0
04:00 2.009310221SSO5SO0
05:00 1.4094102105SE0
06:00 0.409410221ESE6S0
07:00 0.2094102203ESE0
08:00 3.809510211SSE5SSE45
09:00 7.207910212SO8SO60
10:00 9.107310206OSO15OSO60
11:00 11.006910199OSO21OSO60
12:00 12.8064101812SO24SSO60
13:00 14.6056101811SO23SO60
14:00 15.9048101710OSO23OSO60
15:00 16.8042101711O23ONO50
16:00 15.9043101611ONO24ONO20
17:00 15.8042101611ONO26ONO50
18:00 16.104010167ONO21NO55
19:00 15.303910177O23O60
20:00 13.404110175E23ESE50
21:00 12.0042101613ENE31ENE0
22:00 10.304610178ENE27E0
23:00 9.005010176NE24ENE0
minuit 6.506210173NO11E0

Graphique du 14-05-2019

 

Serveur OMMA